Aliq, Pennsylvania
Current Conditions -  °F | °C
As of 5:51 PM on Sunday 21 Dec 2014 (Local Time) from KPIT Reporting Station
Scattered Clouds Scattered Clouds  
Wind Chill: 25°   Ceiling: Unl
Heat Index: 30°   Visibility: 10mi
Dew Point: 22°   Wind: 5mph
Humidity: 72%   Direction: 40°NE
Pressure: 30.24"   Gusts: NA
Location:  40.5921°N, 80.3191°W
Report Text: KPIT 212251Z 04004KT 10SM SCT220 M01/M06 A3024 RMK AO2 SLP261 T10111056
Loading
Personal Weather Stations






























Interactive Weather Map New forecast layout! Learn more

10-Day Weather Forecast

Advertisements
Track Severe Weather on mobile